CheckWX is a tool to help pilots better visualize weather data.  It is not intended as a substitute for an official pre-flight weather briefing.

23:30:54 UTC

KHEG METAR
Herlong Recreational Airport
Jacksonville, Florida, USA
Current

16 mins ago

KHEG 092315Z AUTO 29009KT 270V360 6SM HZ CLR 32/23 A2989 RMK AO2
Observed
Jul-9 @ 23:15 UTC
Wind
  • 290° at 9 KTS
Visibility
6 SM
Flight Rules
VFR
Conditions
Haze
Cloud Levels
  • Clear skies
Temperature
32°C / 90°F
Dewpoint
23°C / 73°F
Humidity
59%
Altimeter
29.89" Hg
Pressure
1012.22 hPa
Previous

36 mins ago

KHEG 092255Z AUTO VRB04KT 7SM CLR 32/23 A2988 RMK AO2 LTG DSNT N AND NE
Observed
Jul-9 @ 22:55 UTC
Wind
  • Variable at 4 KTS
Visibility
7 SM
Flight Rules
VFR
Cloud Levels
  • Clear skies
Temperature
32°C / 90°F
Dewpoint
23°C / 73°F
Humidity
59%
Altimeter
29.88" Hg
Pressure
1011.82 hPa
Previous

56 mins ago

KHEG 092235Z AUTO 26007KT 5SM HZ FEW120 31/23 A2987 RMK AO2 LTG DSNT N AND NE
Observed
Jul-9 @ 22:35 UTC
Wind
  • 260° at 7 KTS
Visibility
5 SM
Flight Rules
MVFR
Conditions
Haze
Cloud Levels
  • Few at 12,000' AGL
Temperature
31°C / 88°F
Dewpoint
23°C / 73°F
Humidity
62%
Altimeter
29.87" Hg
Pressure
1011.52 hPa